map of AEP home
AEP - Airport
Location
City:  Buenos Aires, Ciudad Autónoma de Buenos Aires, Argentina
Name:Aeroparque Jorge Newbery
ICAO:SABE
IATA:AEP

Details
Type:Airport (Aerodrome, Airfield)
Use:Public/Civil, Military
Latitude:34°33'33"S (-34.559174)
Longitude:58°24'56"W (-58.415605)
Datum:WGS 1984
Elevation:18 ft (5 m)
Variation:9.20°W (WMM2015v2 magnetic declination)
-0.16° annual change
Runways:1
Longest:6890 × 131 ft (2100 × 40 m), paved

Time
Time Zone:UTC-3
Local Time:

Weather
METAR:SABE 041400Z 04005KT 350V100 9999 FEW035 23/14 Q1025 NOSIG
TAF:SABE 041100Z 0412/0512 07010KT 9999 SCT035 TX26/0418Z TN19/0510Z
BECMG 0506/0508 36010KT

Related Locations
Nearby:
Farthest:YNZ: 12325 mi / 19835 km
Yancheng, 32, CN

Find:

   beyond  
but within

Other Information
Maps:
NOTAMs:
Links:
Sources:

  
  • flag of Argentina
  • flag of Ciudad Autónoma de Buenos Aires
  

Sectional Chart

Flight Planning
at skyvector.com

Satellite Image

Google Maps Satellite view

 

Copyright © 2004-2019 Karl L. Swartz. All rights reserved.
The Great Circle Mapper name and logo are trademarks of the Great Circle Mapper.
All other trademarks mentioned herein belong to their respective owners.
Please see credits for attibutions and further copyright information.

  Follow gcmap on Facebook Follow gcmap on Twitter GCmap on LinkedIn

hCard Microformat

Geo Microformat